Time;durP1;ratioP1;P1;durP2;ratioP2;P2;SDS_P1;SDS_P2;PMS_P1;PMS_P2;Temp;Humidity;BMP_temperature;BMP_pressure;BME280_temperature;BME280_humidity;BME280_pressure;Samples;Min_cycle;Max_cycle;Signal;HPM_P1;HPM_P2
2023/01/18 00:00:42;;;;;;;10.18;4.22;;;;;;;;;;5043758;28;20032;-47
2023/01/18 00:03:10;;;;;;;7.65;3.55;;;;;;;;;;5043556;28;20414;-50
2023/01/18 00:05:39;;;;;;;6.75;2.90;;;;;;;;;;5042459;28;20029;-51
2023/01/18 00:08:06;;;;;;;5.28;2.72;;;;;;;;;;5043670;28;20031;-47
2023/01/18 00:10:32;;;;;;;4.78;2.53;;;;;;;;;;5043648;28;20472;-48
2023/01/18 00:12:58;;;;;;;4.50;2.10;;;;;;;;;;5043792;28;20558;-48
2023/01/18 00:15:24;;;;;;;3.60;2.35;;;;;;;;;;5044464;28;20033;-46
2023/01/18 00:17:50;;;;;;;3.25;1.92;;;;;;;;;;5043454;28;20040;-47
2023/01/18 00:20:21;;;;;;;4.75;2.17;;;;;;;;;;5043690;28;20051;-48
2023/01/18 00:22:47;;;;;;;3.35;1.67;;;;;;;;;;5043289;28;20037;-48
2023/01/18 00:25:13;;;;;;;1.98;1.40;;;;;;;;;;5043688;28;20406;-47
2023/01/18 00:27:40;;;;;;;1.90;1.30;;;;;;;;;;5027023;28;20034;-49
2023/01/18 00:30:06;;;;;;;2.00;1.40;;;;;;;;;;5043941;28;20470;-50
2023/01/18 00:32:34;;;;;;;1.38;0.95;;;;;;;;;;5039619;28;20025;-49
2023/01/18 00:35:03;;;;;;;1.67;1.00;;;;;;;;;;5048984;28;20028;-47
2023/01/18 00:37:31;;;;;;;1.65;1.13;;;;;;;;;;5048834;28;20043;-49
2023/01/18 00:39:57;;;;;;;2.28;1.27;;;;;;;;;;5048532;28;20105;-49
2023/01/18 00:45:08;;;;;;;1.48;0.85;;;;;;;;;;5048536;28;20031;-49
2023/01/18 00:47:34;;;;;;;3.42;1.15;;;;;;;;;;5047899;28;20418;-48
2023/01/18 00:50:01;;;;;;;2.17;1.08;;;;;;;;;;5048208;28;20028;-50
2023/01/18 00:52:27;;;;;;;1.77;1.08;;;;;;;;;;5048281;28;20476;-47
2023/01/18 00:54:53;;;;;;;1.88;1.10;;;;;;;;;;5049018;28;20475;-48
2023/01/18 00:57:19;;;;;;;1.88;0.88;;;;;;;;;;5048301;28;20106;-47
2023/01/18 00:59:45;;;;;;;1.63;0.88;;;;;;;;;;5048605;28;20033;-48
2023/01/18 01:02:11;;;;;;;2.50;1.10;;;;;;;;;;5041668;28;20044;-49
2023/01/18 06:12:47;;;;;;;2.40;1.25;;;;;;;;;;5048987;28;20051;-48
2023/01/18 06:15:14;;;;;;;1.35;1.02;;;;;;;;;;5048261;28;20032;-49
2023/01/18 06:17:40;;;;;;;1.92;1.50;;;;;;;;;;5048719;28;20029;-50
2023/01/18 06:20:06;;;;;;;2.47;1.42;;;;;;;;;;5048420;28;20029;-48
2023/01/18 06:22:33;;;;;;;2.17;1.38;;;;;;;;;;5048482;28;20411;-47
2023/01/18 06:24:59;;;;;;;2.03;1.50;;;;;;;;;;5048340;28;20099;-48
2023/01/18 06:27:25;;;;;;;2.25;1.60;;;;;;;;;;5039026;28;20033;-48
2023/01/18 06:29:51;;;;;;;2.13;1.38;;;;;;;;;;5027455;28;20025;-48
2023/01/18 06:32:17;;;;;;;1.83;1.30;;;;;;;;;;5028173;28;20030;-48
2023/01/18 06:34:43;;;;;;;2.50;1.30;;;;;;;;;;5028381;28;20025;-48
2023/01/18 06:37:09;;;;;;;2.13;1.30;;;;;;;;;;5028598;28;20033;-48
2023/01/18 06:39:35;;;;;;;2.20;1.27;;;;;;;;;;5028302;28;20089;-49
2023/01/18 06:42:02;;;;;;;1.67;1.20;;;;;;;;;;5041181;28;20033;-49
2023/01/18 06:44:28;;;;;;;1.73;1.27;;;;;;;;;;5056965;28;20064;-47
2023/01/18 06:46:54;;;;;;;1.73;1.13;;;;;;;;;;5049317;28;20099;-48
2023/01/18 06:49:20;;;;;;;2.55;1.40;;;;;;;;;;5049338;28;20494;-47
2023/01/18 06:51:46;;;;;;;2.47;1.42;;;;;;;;;;5047264;28;20033;-50
2023/01/18 06:54:14;;;;;;;1.90;1.27;;;;;;;;;;5058123;28;20613;-51
2023/01/18 06:56:40;;;;;;;2.42;1.30;;;;;;;;;;5049076;28;20025;-51
2023/01/18 06:59:06;;;;;;;2.42;1.40;;;;;;;;;;5048926;28;20029;-47
2023/01/18 07:01:32;;;;;;;2.00;1.60;;;;;;;;;;5031688;28;20045;-51
2023/01/18 07:03:58;;;;;;;1.45;1.08;;;;;;;;;;5042159;28;20025;-48
2023/01/18 07:06:24;;;;;;;2.08;1.45;;;;;;;;;;5048778;28;20025;-48
2023/01/18 07:08:50;;;;;;;1.42;1.20;;;;;;;;;;5048950;28;20044;-48
2023/01/18 07:11:17;;;;;;;2.42;1.33;;;;;;;;;;5048848;28;20665;-49
2023/01/18 07:13:45;;;;;;;2.25;1.05;;;;;;;;;;5048838;28;20487;-48
2023/01/18 07:16:20;;;;;;;2.50;1.50;;;;;;;;;;5048812;28;20033;-49
2023/01/18 07:18:48;;;;;;;2.58;1.45;;;;;;;;;;5045992;28;20855;-49
2023/01/18 07:21:15;;;;;;;2.47;1.27;;;;;;;;;;5048890;28;20029;-49
2023/01/18 07:23:41;;;;;;;3.05;2.00;;;;;;;;;;5048788;28;20059;-50
2023/01/18 07:26:08;;;;;;;4.38;2.08;;;;;;;;;;5048842;28;20029;-51
2023/01/18 07:28:37;;;;;;;4.00;1.80;;;;;;;;;;5048749;28;20089;-48
2023/01/18 07:31:05;;;;;;;7.55;2.55;;;;;;;;;;5049496;28;20052;-47
2023/01/18 07:33:31;;;;;;;7.65;2.90;;;;;;;;;;5048694;28;20219;-47
2023/01/18 07:35:57;;;;;;;12.93;5.60;;;;;;;;;;5047857;28;20036;-52
2023/01/18 07:38:24;;;;;;;9.30;4.78;;;;;;;;;;5048492;28;20032;-49
2023/01/18 07:40:50;;;;;;;14.32;6.10;;;;;;;;;;5048386;28;20043;-50
2023/01/18 07:43:17;;;;;;;11.70;5.78;;;;;;;;;;5048369;28;20527;-46
2023/01/18 07:45:51;;;;;;;10.23;4.95;;;;;;;;;;5048806;28;20444;-51
2023/01/18 07:48:17;;;;;;;9.05;4.65;;;;;;;;;;5048398;28;20032;-47
2023/01/18 07:50:43;;;;;;;6.85;3.30;;;;;;;;;;5047875;28;20032;-52
2023/01/18 07:53:09;;;;;;;7.10;3.45;;;;;;;;;;5048340;28;20021;-51
2023/01/18 07:55:37;;;;;;;8.10;3.80;;;;;;;;;;5038643;28;20113;-48
2023/01/18 07:58:03;;;;;;;9.80;4.05;;;;;;;;;;5048847;28;20033;-50
2023/01/18 08:00:29;;;;;;;10.88;4.50;;;;;;;;;;5049308;28;20053;-48
2023/01/18 08:02:55;;;;;;;10.75;4.60;;;;;;;;;;5049152;28;20029;-49
2023/01/18 08:05:25;;;;;;;10.50;4.38;;;;;;;;;;5047323;28;20029;-48
2023/01/18 08:07:52;;;;;;;9.05;3.60;;;;;;;;;;5047126;28;20044;-50
2023/01/18 08:10:18;;;;;;;7.18;3.13;;;;;;;;;;5047021;28;20029;-51
2023/01/18 08:12:44;;;;;;;8.32;3.60;;;;;;;;;;5045859;28;20764;-49
2023/01/18 08:15:11;;;;;;;8.15;3.65;;;;;;;;;;5047601;28;20044;-48
2023/01/18 08:17:37;;;;;;;8.07;3.58;;;;;;;;;;5047084;28;20040;-49
2023/01/18 08:20:04;;;;;;;5.13;2.63;;;;;;;;;;5047091;28;20064;-48
2023/01/18 08:22:31;;;;;;;4.85;2.33;;;;;;;;;;5045158;28;20096;-49
2023/01/18 08:24:57;;;;;;;4.07;2.30;;;;;;;;;;5045135;28;20121;-48
2023/01/18 08:27:23;;;;;;;6.15;2.60;;;;;;;;;;5059530;28;20566;-49
2023/01/18 08:29:49;;;;;;;3.95;2.20;;;;;;;;;;5037499;28;20025;-49
2023/01/18 08:32:15;;;;;;;4.50;2.35;;;;;;;;;;5046583;28;20415;-52
2023/01/18 08:34:41;;;;;;;4.25;2.33;;;;;;;;;;5045849;28;20040;-48
2023/01/18 08:37:07;;;;;;;5.55;2.78;;;;;;;;;;5045646;28;20036;-51
2023/01/18 08:39:33;;;;;;;8.05;4.03;;;;;;;;;;5045290;28;20508;-50
2023/01/18 08:41:59;;;;;;;10.70;5.82;;;;;;;;;;5044245;28;20033;-47
2023/01/18 08:44:27;;;;;;;18.38;9.80;;;;;;;;;;5044116;28;20511;-50
2023/01/18 08:46:53;;;;;;;19.77;11.90;;;;;;;;;;5045215;28;20044;-50
2023/01/18 08:49:19;;;;;;;18.25;12.13;;;;;;;;;;5045085;28;20446;-50
2023/01/18 08:51:45;;;;;;;15.57;10.25;;;;;;;;;;5044605;28;20025;-47
2023/01/18 08:54:11;;;;;;;11.35;8.00;;;;;;;;;;5031622;28;20033;-48
2023/01/18 08:56:37;;;;;;;9.60;6.53;;;;;;;;;;5028740;28;20044;-47
2023/01/18 08:59:07;;;;;;;8.13;5.53;;;;;;;;;;5028302;28;20125;-49
2023/01/18 09:01:34;;;;;;;10.02;5.72;;;;;;;;;;5037563;28;20025;-51
2023/01/18 09:04:00;;;;;;;10.52;5.68;;;;;;;;;;5048107;28;20033;-50
2023/01/18 09:06:30;;;;;;;7.00;4.65;;;;;;;;;;5048102;28;20017;-51
2023/01/18 09:08:58;;;;;;;7.32;4.35;;;;;;;;;;5047971;28;20104;-50
2023/01/18 09:11:24;;;;;;;6.13;3.80;;;;;;;;;;5045303;28;20192;-47
2023/01/18 09:13:54;;;;;;;4.65;3.30;;;;;;;;;;5048266;28;20025;-50
2023/01/18 09:16:20;;;;;;;4.60;3.03;;;;;;;;;;5048778;28;20059;-50
2023/01/18 09:18:49;;;;;;;4.40;2.90;;;;;;;;;;5037087;28;20063;-49
2023/01/18 09:21:16;;;;;;;5.03;3.28;;;;;;;;;;5027893;28;20025;-48
2023/01/18 09:23:44;;;;;;;5.95;3.60;;;;;;;;;;5027765;28;20072;-49
2023/01/18 09:26:20;;;;;;;6.82;3.83;;;;;;;;;;5045386;28;20084;-48
2023/01/18 09:28:51;;;;;;;9.93;4.72;;;;;;;;;;5047787;28;20029;-50
2023/01/18 09:31:17;;;;;;;7.40;4.03;;;;;;;;;;5046276;28;20021;-48
2023/01/18 09:33:43;;;;;;;6.15;3.28;;;;;;;;;;5049208;28;20108;-48
2023/01/18 09:36:11;;;;;;;7.30;4.05;;;;;;;;;;5066684;28;20111;-49
2023/01/18 09:38:38;;;;;;;7.15;3.70;;;;;;;;;;5061558;28;20527;-49
2023/01/18 09:41:27;;;;;;;8.07;3.97;;;;;;;;;;5047525;28;20025;-50
2023/01/18 09:43:56;;;;;;;4.53;2.60;;;;;;;;;;5028584;28;20041;-48
2023/01/18 09:46:24;;;;;;;5.22;3.20;;;;;;;;;;5047909;28;20033;-48
2023/01/18 09:49:01;;;;;;;3.33;1.88;;;;;;;;;;5048664;28;20029;-48
2023/01/18 09:51:38;;;;;;;2.90;2.10;;;;;;;;;;5068819;28;20016;-48
2023/01/18 09:54:06;;;;;;;2.45;1.83;;;;;;;;;;5056725;28;20022;-52
2023/01/18 09:56:41;;;;;;;2.72;1.60;;;;;;;;;;5039157;28;20084;-49
2023/01/18 09:59:14;;;;;;;2.75;1.58;;;;;;;;;;5025848;28;20098;-51
2023/01/18 10:01:40;;;;;;;1.23;1.10;;;;;;;;;;5048166;28;20032;-48
2023/01/18 10:04:29;;;;;;;1.23;1.00;;;;;;;;;;5058669;28;20036;-49
2023/01/18 10:06:55;;;;;;;2.05;1.45;;;;;;;;;;5048346;28;20029;-47
2023/01/18 10:09:33;;;;;;;2.22;1.48;;;;;;;;;;5052758;28;20040;-46
2023/01/18 10:12:01;;;;;;;2.05;1.45;;;;;;;;;;5035003;28;20045;-47
2023/01/18 10:14:36;;;;;;;2.22;1.63;;;;;;;;;;5056191;28;20040;-47
2023/01/18 10:17:04;;;;;;;3.28;2.03;;;;;;;;;;5054024;28;20036;-47
2023/01/18 10:19:31;;;;;;;4.03;2.65;;;;;;;;;;5049707;28;20360;-46
2023/01/18 10:22:08;;;;;;;3.85;2.50;;;;;;;;;;5046797;28;20519;-47
2023/01/18 10:24:53;;;;;;;3.65;2.58;;;;;;;;;;5047301;28;20044;-47
2023/01/18 10:27:40;;;;;;;3.40;2.58;;;;;;;;;;5045248;28;20507;-49
2023/01/18 10:30:06;;;;;;;3.67;2.22;;;;;;;;;;5036092;28;20566;-50
2023/01/18 10:32:36;;;;;;;2.50;1.80;;;;;;;;;;5047240;28;20048;-47
2023/01/18 10:35:05;;;;;;;3.40;2.33;;;;;;;;;;5047226;28;20021;-49
2023/01/18 10:37:44;;;;;;;3.83;2.53;;;;;;;;;;5046652;28;20039;-47
2023/01/18 10:40:11;;;;;;;4.53;2.88;;;;;;;;;;5046518;28;20109;-50
2023/01/18 10:42:47;;;;;;;3.88;2.70;;;;;;;;;;5046434;28;20036;-48
2023/01/18 10:45:19;;;;;;;3.17;2.47;;;;;;;;;;5046395;28;20071;-50
2023/01/18 10:47:49;;;;;;;3.90;2.80;;;;;;;;;;5026111;28;20040;-51
2023/01/18 10:50:33;;;;;;;4.95;2.55;;;;;;;;;;5026550;28;20022;-51
2023/01/18 10:53:20;;;;;;;3.20;2.47;;;;;;;;;;5026347;28;20061;-49
2023/01/18 10:56:04;;;;;;;3.55;2.70;;;;;;;;;;5020227;28;20037;-50
2023/01/18 10:58:33;;;;;;;25.50;11.68;;;;;;;;;;5047307;28;20514;-49
2023/01/18 11:01:02;;;;;;;18.98;9.63;;;;;;;;;;5056396;28;20701;-51
2023/01/18 11:03:30;;;;;;;13.77;7.50;;;;;;;;;;5035371;28;20024;-49
2023/01/18 11:06:03;;;;;;;10.48;6.53;;;;;;;;;;5047209;28;20101;-48
2023/01/18 11:08:33;;;;;;;8.20;4.97;;;;;;;;;;5046134;28;20078;-48
2023/01/18 11:10:59;;;;;;;6.43;4.35;;;;;;;;;;5045667;28;20457;-49
2023/01/18 11:13:25;;;;;;;5.38;3.58;;;;;;;;;;5045748;28;20143;-49
2023/01/18 11:16:14;;;;;;;6.40;4.38;;;;;;;;;;5049781;28;20123;-48
2023/01/18 11:18:52;;;;;;;9.30;5.40;;;;;;;;;;5046452;28;20521;-47
2023/01/18 11:21:18;;;;;;;16.45;8.43;;;;;;;;;;5047157;28;20037;-52
2023/01/18 11:23:44;;;;;;;16.63;8.43;;;;;;;;;;5046053;28;20040;-52
2023/01/18 11:26:14;;;;;;;13.90;7.13;;;;;;;;;;5057227;28;20040;-49
2023/01/18 11:28:59;;;;;;;10.68;5.75;;;;;;;;;;5046403;28;20468;-51
2023/01/18 11:31:25;;;;;;;;;;;;;;;;;;5047208;28;20024;-48
2023/01/18 11:33:53;;;;;;;9.18;4.88;;;;;;;;;;5046649;28;19915;-48
2023/01/18 11:36:19;;;;;;;7.00;4.15;;;;;;;;;;5044271;28;20036;-50
2023/01/18 11:38:46;;;;;;;8.85;5.00;;;;;;;;;;5044392;28;20033;-50
2023/01/18 11:41:15;;;;;;;6.13;4.07;;;;;;;;;;5042807;28;20028;-51
2023/01/18 11:43:56;;;;;;;5.53;3.30;;;;;;;;;;5045389;28;20021;-47
2023/01/18 11:46:36;;;;;;;5.35;3.20;;;;;;;;;;5044602;28;20044;-48
2023/01/18 11:49:07;;;;;;;4.55;2.63;;;;;;;;;;5025921;28;20265;-48
2023/01/18 11:51:33;;;;;;;6.32;2.72;;;;;;;;;;5046651;28;20063;-49
2023/01/18 11:54:05;;;;;;;2.72;2.10;;;;;;;;;;5046078;28;20087;-48
2023/01/18 11:56:31;;;;;;;2.75;2.08;;;;;;;;;;5046072;28;20037;-48
2023/01/18 11:58:58;;;;;;;2.92;1.90;;;;;;;;;;5049473;28;20079;-51
2023/01/18 12:01:32;;;;;;;3.55;2.10;;;;;;;;;;5054462;28;20028;-49
2023/01/18 12:04:02;;;;;;;2.33;1.85;;;;;;;;;;5048237;28;20039;-50
2023/01/18 12:06:35;;;;;;;4.03;2.42;;;;;;;;;;5049835;28;20049;-47
2023/01/18 12:09:04;;;;;;;7.70;3.87;;;;;;;;;;5044619;28;20025;-46
2023/01/18 12:11:36;;;;;;;5.93;3.08;;;;;;;;;;5049590;28;20345;-47
2023/01/18 12:14:04;;;;;;;4.10;2.60;;;;;;;;;;5045866;28;20029;-50
2023/01/18 12:16:47;;;;;;;3.30;2.40;;;;;;;;;;5051039;28;20043;-47
2023/01/18 12:19:25;;;;;;;3.63;2.60;;;;;;;;;;5064739;28;20032;-48
2023/01/18 12:22:10;;;;;;;3.40;1.98;;;;;;;;;;5044968;28;20076;-47
2023/01/18 12:24:42;;;;;;;2.65;2.05;;;;;;;;;;5044214;28;20024;-48
2023/01/18 12:27:14;;;;;;;2.10;1.77;;;;;;;;;;5044370;28;20048;-51
2023/01/18 12:30:00;;;;;;;3.63;2.13;;;;;;;;;;5049601;28;20029;-46
2023/01/18 12:32:44;;;;;;;3.28;1.95;;;;;;;;;;5013954;28;20040;-50
2023/01/18 12:35:10;;;;;;;2.08;1.88;;;;;;;;;;5052114;28;20021;-48
2023/01/18 12:37:39;;;;;;;2.05;1.85;;;;;;;;;;5049017;28;20091;-51
2023/01/18 12:40:06;;;;;;;2.22;1.70;;;;;;;;;;5049413;28;20451;-47
2023/01/18 12:42:32;;;;;;;2.08;1.75;;;;;;;;;;5055912;28;20037;-50
2023/01/18 12:45:17;;;;;;;3.10;1.55;;;;;;;;;;5049100;28;20033;-48
2023/01/18 12:48:01;;;;;;;1.67;1.38;;;;;;;;;;5044373;28;20156;-50
2023/01/18 12:50:30;;;;;;;2.33;1.30;;;;;;;;;;5047662;28;20036;-48
2023/01/18 12:53:02;;;;;;;3.67;1.40;;;;;;;;;;5049494;28;20510;-48
2023/01/18 12:55:30;;;;;;;1.20;1.10;;;;;;;;;;5054407;28;20025;-48
2023/01/18 12:57:58;;;;;;;2.15;1.40;;;;;;;;;;5047965;28;20091;-47
2023/01/18 13:00:27;;;;;;;1.85;1.42;;;;;;;;;;5051115;28;20563;-51
2023/01/18 13:02:56;;;;;;;3.10;1.20;;;;;;;;;;5049630;28;20462;-49
2023/01/18 13:05:33;;;;;;;1.90;1.48;;;;;;;;;;5049269;28;20029;-49
2023/01/18 13:08:13;;;;;;;3.33;1.90;;;;;;;;;;5049451;28;20320;-48
2023/01/18 13:10:39;;;;;;;2.42;1.70;;;;;;;;;;5048962;28;20028;-48
2023/01/18 13:13:07;;;;;;;3.08;1.88;;;;;;;;;;5048898;28;20120;-48
2023/01/18 13:15:54;;;;;;;2.10;1.73;;;;;;;;;;5047885;28;20068;-47
2023/01/18 13:18:24;;;;;;;2.97;2.00;;;;;;;;;;5017997;28;20029;-47
2023/01/18 13:20:56;;;;;;;5.35;2.65;;;;;;;;;;5048053;28;20033;-47
2023/01/18 13:23:23;;;;;;;4.40;3.20;;;;;;;;;;5047815;28;20435;-47
2023/01/18 13:25:49;;;;;;;5.15;3.40;;;;;;;;;;5048612;28;20048;-47
2023/01/18 13:28:17;;;;;;;4.32;3.05;;;;;;;;;;5047724;28;20021;-47
2023/01/18 13:30:53;;;;;;;6.75;2.90;;;;;;;;;;5047273;28;20075;-47
2023/01/18 13:33:23;;;;;;;7.25;3.95;;;;;;;;;;5048314;28;20535;-48
2023/01/18 13:35:52;;;;;;;7.10;4.60;;;;;;;;;;5047703;28;20029;-47
2023/01/18 13:38:20;;;;;;;8.18;4.05;;;;;;;;;;5051487;28;20024;-47
2023/01/18 13:40:52;;;;;;;5.30;3.80;;;;;;;;;;5049309;28;20025;-48
2023/01/18 13:43:37;;;;;;;6.55;3.97;;;;;;;;;;5048075;28;20037;-49
2023/01/18 13:46:06;;;;;;;7.15;4.15;;;;;;;;;;5047407;28;20029;-48
2023/01/18 13:48:51;;;;;;;7.82;3.97;;;;;;;;;;5049012;28;20025;-49
2023/01/18 13:51:41;;;;;;;7.15;4.15;;;;;;;;;;5048583;28;20055;-48
2023/01/18 13:54:08;;;;;;;7.07;3.65;;;;;;;;;;5035317;28;20029;-47
2023/01/18 13:56:35;;;;;;;6.55;3.67;;;;;;;;;;5047412;28;20064;-47
2023/01/18 13:59:22;;;;;;;7.80;4.22;;;;;;;;;;5046370;28;20025;-51
2023/01/18 14:01:48;;;;;;;10.80;5.40;;;;;;;;;;5046552;28;20021;-47
2023/01/18 14:04:21;;;;;;;15.02;6.65;;;;;;;;;;5047075;28;20156;-46
2023/01/18 14:06:47;;;;;;;12.23;5.80;;;;;;;;;;5047771;28;20049;-47
2023/01/18 14:09:17;;;;;;;9.80;5.30;;;;;;;;;;5046824;28;20031;-47
2023/01/18 14:11:51;;;;;;;10.65;5.80;;;;;;;;;;5046827;28;20526;-47
2023/01/18 14:14:18;;;;;;;7.97;4.85;;;;;;;;;;5047550;28;20032;-49
2023/01/18 14:16:53;;;;;;;8.32;5.22;;;;;;;;;;5046846;28;20104;-47
2023/01/18 14:19:20;;;;;;;7.57;4.70;;;;;;;;;;5047592;28;20033;-48
2023/01/18 14:21:58;;;;;;;7.93;4.50;;;;;;;;;;5046915;28;20104;-46
2023/01/18 14:24:40;;;;;;;8.43;5.00;;;;;;;;;;5046589;28;20464;-47
2023/01/18 14:27:08;;;;;;;7.15;3.67;;;;;;;;;;5046608;28;20094;-48
2023/01/18 14:29:46;;;;;;;5.55;3.80;;;;;;;;;;5046771;28;20024;-49
2023/01/18 14:32:15;;;;;;;7.47;4.18;;;;;;;;;;5046685;28;20013;-48
2023/01/18 14:34:41;;;;;;;10.40;5.50;;;;;;;;;;5046437;28;20029;-46
2023/01/18 14:37:27;;;;;;;11.13;5.95;;;;;;;;;;5046521;28;20399;-48
2023/01/18 14:40:06;;;;;;;11.05;6.13;;;;;;;;;;5046044;28;20033;-47
2023/01/18 14:42:33;;;;;;;11.88;6.97;;;;;;;;;;5046517;28;20032;-50
2023/01/18 14:45:01;;;;;;;11.07;6.15;;;;;;;;;;5046362;28;20029;-49
2023/01/18 14:47:29;;;;;;;12.93;6.63;;;;;;;;;;5040497;28;20021;-48
2023/01/18 14:49:57;;;;;;;10.00;5.88;;;;;;;;;;5036806;28;20035;-49
2023/01/18 14:52:26;;;;;;;13.57;7.18;;;;;;;;;;5038322;28;20048;-47
2023/01/18 14:54:53;;;;;;;16.90;8.32;;;;;;;;;;5025859;28;20411;-47
2023/01/18 14:57:20;;;;;;;20.27;10.30;;;;;;;;;;5026879;28;20037;-48
2023/01/18 14:59:50;;;;;;;19.50;10.02;;;;;;;;;;5026719;28;20029;-48
2023/01/18 15:02:17;;;;;;;18.65;9.32;;;;;;;;;;5026905;28;20101;-47
2023/01/18 15:04:46;;;;;;;16.60;8.98;;;;;;;;;;5027220;28;20459;-46
2023/01/18 15:07:33;;;;;;;15.95;8.20;;;;;;;;;;5025844;28;20034;-47
2023/01/18 15:09:59;;;;;;;14.20;7.65;;;;;;;;;;5025785;28;20026;-50
2023/01/18 15:12:29;;;;;;;13.52;6.32;;;;;;;;;;5029042;28;20043;-48
2023/01/18 15:14:57;;;;;;;14.27;7.03;;;;;;;;;;5044574;28;20381;-48
2023/01/18 15:17:24;;;;;;;12.00;6.18;;;;;;;;;;5044993;28;20063;-50
2023/01/18 15:20:03;;;;;;;9.02;5.55;;;;;;;;;;5046917;28;20041;-49
2023/01/18 15:22:31;;;;;;;10.30;5.63;;;;;;;;;;5049003;28;20475;-47
2023/01/18 15:24:58;;;;;;;10.10;6.10;;;;;;;;;;5041781;28;20037;-49
2023/01/18 15:27:24;;;;;;;11.27;6.72;;;;;;;;;;5046869;28;20051;-48
2023/01/18 15:29:54;;;;;;;14.80;7.60;;;;;;;;;;5038954;28;20036;-48
2023/01/18 15:32:22;;;;;;;13.40;7.20;;;;;;;;;;5042993;28;20025;-47
2023/01/18 15:34:49;;;;;;;15.20;8.02;;;;;;;;;;5039478;28;20025;-48
2023/01/18 15:37:15;;;;;;;10.10;6.25;;;;;;;;;;5045414;28;21064;-48
2023/01/18 15:39:59;;;;;;;9.23;5.57;;;;;;;;;;5046076;28;20051;-49
2023/01/18 15:42:37;;;;;;;9.95;5.20;;;;;;;;;;5044969;28;20021;-49
2023/01/18 15:45:04;;;;;;;8.70;5.47;;;;;;;;;;5030328;28;20040;-47
2023/01/18 15:47:35;;;;;;;9.23;6.03;;;;;;;;;;5035060;28;20162;-47
2023/01/18 15:50:03;;;;;;;9.93;5.40;;;;;;;;;;5047735;28;20561;-47
2023/01/18 15:52:46;;;;;;;8.25;5.07;;;;;;;;;;5047065;28;20032;-47
2023/01/18 15:55:18;;;;;;;10.23;5.22;;;;;;;;;;5048001;28;20044;-50
2023/01/18 15:57:53;;;;;;;9.15;5.40;;;;;;;;;;5055822;28;20096;-46
2023/01/18 16:00:39;;;;;;;6.85;4.68;;;;;;;;;;5047107;28;20057;-48
2023/01/18 16:03:06;;;;;;;6.35;4.05;;;;;;;;;;5030482;28;20079;-47
2023/01/18 16:05:32;;;;;;;8.63;4.75;;;;;;;;;;5048180;28;20033;-50
2023/01/18 16:08:18;;;;;;;5.78;3.95;;;;;;;;;;5046919;28;20033;-48
2023/01/18 16:10:51;;;;;;;7.85;4.40;;;;;;;;;;5055765;28;20029;-47
2023/01/18 16:13:21;;;;;;;6.93;4.30;;;;;;;;;;5045553;28;20074;-47
2023/01/18 16:16:04;;;;;;;9.35;4.43;;;;;;;;;;5054791;28;20028;-48
2023/01/18 16:18:30;;;;;;;7.72;5.03;;;;;;;;;;5059063;28;20408;-47
2023/01/18 16:20:56;;;;;;;7.43;4.65;;;;;;;;;;5044928;28;20036;-48
2023/01/18 16:23:24;;;;;;;7.30;4.57;;;;;;;;;;5044525;28;20473;-51
2023/01/18 16:25:51;;;;;;;7.75;4.18;;;;;;;;;;5046228;28;20044;-45
2023/01/18 16:28:23;;;;;;;5.43;3.70;;;;;;;;;;5048169;28;20417;-46
2023/01/18 16:30:51;;;;;;;6.60;4.55;;;;;;;;;;5047761;28;20040;-44
2023/01/18 16:33:19;;;;;;;28.58;11.93;;;;;;;;;;5046860;28;20029;-42
2023/01/18 16:35:46;;;;;;;25.90;10.20;;;;;;;;;;5045854;28;20052;-45
2023/01/18 16:38:13;;;;;;;15.80;7.90;;;;;;;;;;5045557;28;20028;-44
2023/01/18 16:40:40;;;;;;;16.33;7.15;;;;;;;;;;5048113;28;20024;-42
2023/01/18 16:43:19;;;;;;;11.95;6.50;;;;;;;;;;5042199;28;20025;-44
2023/01/18 16:45:46;;;;;;;9.63;5.63;;;;;;;;;;5046065;28;20040;-43
2023/01/18 16:48:16;;;;;;;9.75;6.00;;;;;;;;;;5044962;28;20021;-45
2023/01/18 16:50:43;;;;;;;7.75;4.90;;;;;;;;;;5043436;28;20033;-43
2023/01/18 16:53:09;;;;;;;10.65;5.13;;;;;;;;;;5045204;28;20021;-44
2023/01/18 16:55:35;;;;;;;7.72;4.97;;;;;;;;;;5044741;28;20032;-45
2023/01/18 16:58:01;;;;;;;5.22;3.58;;;;;;;;;;5044677;28;20037;-44
2023/01/18 17:00:34;;;;;;;8.57;5.30;;;;;;;;;;5045233;28;20044;-44
2023/01/18 17:03:01;;;;;;;7.83;4.97;;;;;;;;;;5044952;28;20118;-43
2023/01/18 17:05:28;;;;;;;7.85;5.07;;;;;;;;;;5045326;28;20298;-45
2023/01/18 17:07:54;;;;;;;7.47;5.20;;;;;;;;;;5045838;28;20036;-44
2023/01/18 17:10:29;;;;;;;9.80;5.43;;;;;;;;;;5046359;28;20017;-45
2023/01/18 17:12:56;;;;;;;10.45;6.53;;;;;;;;;;5045932;28;20060;-45
2023/01/18 17:15:22;;;;;;;11.00;6.60;;;;;;;;;;5049196;28;20079;-45
2023/01/18 17:17:49;;;;;;;10.88;6.18;;;;;;;;;;5049864;28;20043;-45
2023/01/18 17:20:15;;;;;;;11.48;7.03;;;;;;;;;;5049661;28;20491;-43
2023/01/18 17:22:41;;;;;;;10.68;6.88;;;;;;;;;;5047996;28;20123;-44
2023/01/18 17:25:07;;;;;;;9.57;6.00;;;;;;;;;;5049695;28;20039;-45
2023/01/18 17:27:33;;;;;;;7.68;5.03;;;;;;;;;;5048452;28;20083;-44
2023/01/18 17:30:00;;;;;;;8.20;5.13;;;;;;;;;;5048993;28;20036;-44
2023/01/18 17:32:27;;;;;;;9.38;5.13;;;;;;;;;;5050853;28;20023;-45
2023/01/18 17:34:53;;;;;;;8.32;5.18;;;;;;;;;;5046915;28;20502;-45
2023/01/18 17:37:20;;;;;;;7.25;3.92;;;;;;;;;;5042770;28;20063;-45
2023/01/18 17:39:46;;;;;;;9.20;4.70;;;;;;;;;;5042864;28;20033;-44
2023/01/18 17:42:12;;;;;;;7.90;4.57;;;;;;;;;;5048008;28;20037;-46
2023/01/18 17:44:38;;;;;;;6.57;4.07;;;;;;;;;;5047486;28;20033;-44
2023/01/18 17:47:04;;;;;;;8.70;4.80;;;;;;;;;;5049286;28;20025;-44
2023/01/18 17:49:31;;;;;;;6.70;4.30;;;;;;;;;;5047629;28;20410;-45
2023/01/18 17:51:57;;;;;;;7.68;4.07;;;;;;;;;;5048445;28;20036;-45
2023/01/18 17:54:23;;;;;;;8.13;4.93;;;;;;;;;;5047762;28;20119;-44
2023/01/18 17:56:49;;;;;;;11.18;5.25;;;;;;;;;;5046867;28;20037;-44
2023/01/18 17:59:16;;;;;;;10.45;5.20;;;;;;;;;;5046587;28;20033;-44
2023/01/18 18:01:42;;;;;;;11.18;5.80;;;;;;;;;;5047256;28;20442;-43
2023/01/18 18:04:08;;;;;;;10.93;5.20;;;;;;;;;;5046199;28;20029;-45
2023/01/18 18:06:34;;;;;;;13.50;5.88;;;;;;;;;;5044639;28;20037;-43
2023/01/18 18:09:01;;;;;;;13.70;6.57;;;;;;;;;;5045932;28;20090;-44
2023/01/18 18:11:27;;;;;;;15.90;7.35;;;;;;;;;;5040243;28;20352;-43
2023/01/18 18:13:55;;;;;;;22.92;9.60;;;;;;;;;;5047018;28;20062;-42
2023/01/18 18:16:21;;;;;;;19.67;8.20;;;;;;;;;;5045484;28;20045;-42
2023/01/18 18:18:47;;;;;;;16.45;8.10;;;;;;;;;;5044906;28;20075;-42
2023/01/18 18:21:14;;;;;;;14.73;7.65;;;;;;;;;;5052405;28;20527;-43
2023/01/18 18:23:40;;;;;;;14.95;7.15;;;;;;;;;;5045043;28;20025;-44
2023/01/18 18:26:06;;;;;;;16.40;7.13;;;;;;;;;;5044129;28;20083;-43
2023/01/18 18:28:33;;;;;;;12.10;6.82;;;;;;;;;;5044080;28;20033;-45
2023/01/18 18:30:59;;;;;;;14.57;8.05;;;;;;;;;;5042241;28;20060;-45
2023/01/18 18:33:27;;;;;;;12.77;7.20;;;;;;;;;;5044986;28;20431;-45
2023/01/18 18:35:54;;;;;;;12.93;6.93;;;;;;;;;;5044703;28;20837;-44
2023/01/18 18:38:26;;;;;;;11.10;5.82;;;;;;;;;;5046173;28;20487;-45
2023/01/18 18:40:52;;;;;;;9.90;5.93;;;;;;;;;;5044435;28;20033;-44
2023/01/18 18:43:19;;;;;;;10.38;6.05;;;;;;;;;;5044993;28;20056;-45
2023/01/18 18:45:45;;;;;;;8.27;5.25;;;;;;;;;;5043986;28;20029;-44
2023/01/18 18:48:14;;;;;;;9.52;5.72;;;;;;;;;;5043908;28;20037;-44
2023/01/18 18:50:41;;;;;;;9.15;4.78;;;;;;;;;;5043297;28;20112;-45
2023/01/18 18:53:07;;;;;;;9.30;4.78;;;;;;;;;;5044893;28;20021;-45
2023/01/18 18:55:34;;;;;;;6.30;4.43;;;;;;;;;;5045546;28;20029;-45
2023/01/18 18:58:01;;;;;;;10.18;5.30;;;;;;;;;;5045011;28;20459;-44
2023/01/18 19:00:28;;;;;;;9.35;5.00;;;;;;;;;;5044428;28;20338;-44
2023/01/18 19:03:00;;;;;;;6.90;4.47;;;;;;;;;;5043696;28;20067;-45
2023/01/18 19:05:27;;;;;;;10.00;5.15;;;;;;;;;;5043979;28;20029;-44
2023/01/18 19:07:53;;;;;;;10.20;5.20;;;;;;;;;;5038281;28;20037;-45
2023/01/18 19:10:20;;;;;;;8.77;4.88;;;;;;;;;;5043748;28;20028;-43
2023/01/18 19:12:46;;;;;;;8.77;5.07;;;;;;;;;;5043098;28;20025;-44
2023/01/18 19:15:12;;;;;;;10.43;6.22;;;;;;;;;;5043459;28;20495;-44
2023/01/18 19:17:38;;;;;;;11.13;6.22;;;;;;;;;;5043753;28;20135;-44
2023/01/18 19:20:04;;;;;;;13.75;7.80;;;;;;;;;;5043526;28;20029;-45
2023/01/18 19:22:30;;;;;;;12.23;7.20;;;;;;;;;;5043807;28;20029;-44
2023/01/18 19:24:56;;;;;;;13.02;7.43;;;;;;;;;;5044693;28;20036;-45
2023/01/18 19:27:23;;;;;;;10.70;6.50;;;;;;;;;;5043318;28;20041;-44
2023/01/18 19:29:51;;;;;;;9.45;5.55;;;;;;;;;;5041184;28;20029;-45
2023/01/18 19:32:17;;;;;;;8.95;5.63;;;;;;;;;;5044906;28;20040;-44
2023/01/18 19:34:43;;;;;;;11.13;6.07;;;;;;;;;;5043265;28;20021;-44
2023/01/18 19:37:09;;;;;;;10.00;6.50;;;;;;;;;;5043359;28;20321;-45
2023/01/18 19:39:35;;;;;;;9.30;5.70;;;;;;;;;;5043798;28;20111;-44
2023/01/18 19:42:01;;;;;;;7.97;5.25;;;;;;;;;;5048992;28;20406;-44
2023/01/18 19:44:27;;;;;;;10.05;5.57;;;;;;;;;;5042409;28;20043;-44
2023/01/18 19:46:55;;;;;;;11.40;6.47;;;;;;;;;;5042020;28;20033;-45
2023/01/18 19:49:23;;;;;;;10.20;6.15;;;;;;;;;;5043484;28;20551;-44
2023/01/18 19:51:50;;;;;;;9.68;5.45;;;;;;;;;;5043389;28;20017;-45
2023/01/18 19:54:16;;;;;;;13.02;6.82;;;;;;;;;;5043549;28;20024;-44
2023/01/18 19:56:42;;;;;;;11.15;6.85;;;;;;;;;;5043705;28;20353;-44
2023/01/18 19:59:10;;;;;;;10.13;6.72;;;;;;;;;;5043862;28;20060;-44
2023/01/18 20:01:37;;;;;;;11.25;6.85;;;;;;;;;;5043800;28;20086;-44